Minerva, Ohio
Current Conditions -  °F | °C
As of 12:07 PM on Tuesday 21 Oct 2014 (Local Time) from KCAK Reporting Station
Moderate Rain Moderate Rain  
Wind Chill: 50°   Ceiling: 1400
Heat Index: 50°   Visibility: 2mi
Dew Point: 46°   Wind: 9mph
Humidity: 87%   Direction: 330°NNW
Pressure: 29.92"   Gusts: NA
Location:  40.73°N, 81.11°W
Report Text: KCAK 211607Z 33008KT 2SM RA BR FEW007 OVC014 10/08 A2992 RMK AO2 VIS 1V3 P0001 $
Loading
Personal Weather Stations






























Interactive Weather Map
Tropical Storm Tracking
New forecast layout! Learn more

10-Day Weather Forecast

Advertisements
Track Severe Weather on mobile